Time;durP1;ratioP1;P1;durP2;ratioP2;P2;SDS_P1;SDS_P2;PMS_P1;PMS_P2;Temp;Humidity;BMP_temperature;BMP_pressure;BME280_temperature;BME280_humidity;BME280_pressure;Samples;Min_cycle;Max_cycle;Signal;HPM_P1;HPM_P2
2022/04/03 00:04:40;;;;;;;1.85;1.75;;;;;;;;;;778355;76;26211;-78
2022/04/03 00:05:44;;;;;;;2.17;2.08;;;;;;;;;;778216;76;26245;-74
2022/04/03 00:06:46;;;;;;;2.00;1.90;;;;;;;;;;785917;75;26245;-75
2022/04/03 00:07:49;;;;;;;1.80;1.70;;;;;;;;;;790762;75;26242;-76
2022/04/03 00:08:52;;;;;;;2.20;2.10;;;;;;;;;;790783;75;26316;-75
2022/04/03 00:09:55;;;;;;;1.92;1.82;;;;;;;;;;790762;75;26243;-75
2022/04/03 00:14:53;;;;;;;2.02;1.80;;;;;;;;;;762536;78;26323;-74
2022/04/03 00:15:56;;;;;;;1.60;1.60;;;;;;;;;;762575;78;26328;-75
2022/04/03 00:16:59;;;;;;;1.80;1.70;;;;;;;;;;762663;78;26250;-76
2022/04/03 00:18:02;;;;;;;1.85;1.75;;;;;;;;;;762588;78;26770;-76
2022/04/03 00:19:05;;;;;;;1.75;1.65;;;;;;;10.61;100.00;74891.28;762493;78;26346;-75
2022/04/03 00:25:35;;;;;;;2.50;2.30;;;;;;;;;;739634;80;26208;-76
2022/04/03 00:26:41;;;;;;;2.60;2.50;;;;;;;;;;738915;80;26313;-75
2022/04/03 00:27:44;;;;;;;2.70;2.50;;;;;;;;;;739165;80;26268;-75
2022/04/03 00:28:46;;;;;;;2.90;2.70;;;;;;;;;;739645;80;26340;-76
2022/04/03 00:29:49;;;;;;;2.87;2.35;;;;;;;;;;738869;80;26778;-74
2022/04/03 00:32:55;;;;;;;2.35;2.15;;;;;;;;;;739548;80;26301;-74
2022/04/03 00:33:59;;;;;;;2.80;2.60;;;;;;;;;;757311;78;26374;-75
2022/04/03 00:35:03;;;;;;;3.75;2.92;;;;;;;;;;757731;78;26322;-76
2022/04/03 00:36:06;;;;;;;5.50;3.20;;;;;;;;;;757031;78;26266;-75
2022/04/03 00:37:08;;;;;;;3.65;2.75;;;;;;;;;;757695;78;26713;-74
2022/04/03 00:38:11;;;;;;;3.05;2.85;;;;;;;;;;757023;78;26310;-75
2022/04/03 00:39:14;;;;;;;3.50;2.85;;;;;;;;;;757176;78;26740;-74
2022/04/03 00:44:12;;;;;;;4.28;3.20;;;;;;;;;;789720;75;26250;-76
2022/04/03 00:45:16;;;;;;;3.67;3.30;;;;;;;;;;789772;75;26363;-73
2022/04/03 00:46:19;;;;;;;3.37;2.95;;;;;;;;;;789747;75;26249;-76
2022/04/03 00:47:22;;;;;;;3.52;3.20;;;;;;;;;;789754;75;26679;-75
2022/04/03 00:48:25;;;;;;;3.90;3.60;;;;;;;;;;789818;75;26246;-75
2022/04/03 00:49:28;;;;;;;3.45;3.08;;;;;;;;;;789721;75;26290;-74
2022/04/03 00:56:21;;;;;;;3.60;3.30;;;;;;;;;;783612;75;26227;-74
2022/04/03 00:57:25;;;;;;;5.83;3.50;;;;;;;;;;783534;75;26230;-76
2022/04/03 00:58:28;;;;;;;3.72;3.52;;;;;;;;;;783557;75;26238;-74
2022/04/03 00:59:31;;;;;;;4.17;3.85;;;;;;;;;;783480;75;26242;-74
2022/04/03 01:03:48;;;;;;;3.58;3.27;;;;;;;;;;777870;76;26164;-76
2022/04/03 01:04:52;;;;;;;2.98;2.77;;;;;;;;;;764147;77;26671;-77
2022/04/03 01:05:56;;;;;;;3.30;3.10;;;;;;;;;;777849;76;26232;-75
2022/04/03 01:07:00;;;;;;;3.50;3.20;;;;;;;;;;775246;76;26234;-77
2022/04/03 01:08:03;;;;;;;3.30;3.10;;;;;;;;;;774702;76;26249;-78
2022/04/03 01:09:06;;;;;;;4.65;3.00;;;;;;;;;;774843;76;26291;-76
2022/04/03 01:14:02;;;;;;;3.45;2.90;;;;;;;;;;747533;78;26293;-76
2022/04/03 01:15:05;;;;;;;3.42;3.12;;;;;;;;;;749184;79;26295;-76
2022/04/03 01:16:08;;;;;;;3.02;2.65;;;;;;;;;;749432;79;26225;-75
2022/04/03 01:17:13;;;;;;;3.50;2.77;;;;;;;;;;751468;78;26255;-77
2022/04/03 01:18:16;;;;;;;3.22;2.50;;;;;;;;;;756945;78;26248;-77
2022/04/03 01:19:19;;;;;;;1.95;1.85;;;;;;;;;;756498;78;26704;-75
2022/04/03 01:22:38;;;;;;;5.97;2.22;;;;;;;;;;756271;78;26638;-75
2022/04/03 01:23:41;;;;;;;2.52;1.95;;;;;;;;;;749370;78;24665;-76
2022/04/03 01:24:44;;;;;;;2.58;2.37;;;;;;;;;;749794;78;26309;-75
2022/04/03 01:25:47;;;;;;;2.40;2.22;;;;;;;;;;750012;79;26303;-73
2022/04/03 01:26:50;;;;;;;2.55;2.35;;;;;;;;;;749912;79;26264;-75
2022/04/03 01:27:55;;;;;;;2.00;1.80;;;;;;;;;;750039;79;26681;-76
2022/04/03 01:28:58;;;;;;;2.33;2.12;;;;;;;;;;750141;78;26326;-75
2022/04/03 01:32:32;;;;;;;2.22;2.00;;;;;;;;;;755740;78;26307;-76
2022/04/03 01:33:34;;;;;;;2.20;2.00;;;;;;;;;;755842;78;26250;-75
2022/04/03 01:34:37;;;;;;;2.15;2.00;;;;;;;;;;756266;78;26304;-74
2022/04/03 01:35:40;;;;;;;3.25;2.05;;;;;;;;;;756330;78;26347;-75
2022/04/03 01:36:44;;;;;;;2.05;1.95;;;;;;;;;;756855;78;26265;-77
2022/04/03 01:37:49;;;;;;;4.53;2.20;;;;;;;;;;757017;78;26250;-75
2022/04/03 01:38:52;;;;;;;2.15;1.95;;;;;;;;;;757068;78;26687;-75
2022/04/03 01:43:48;;;;;;;2.90;2.02;;;;;;;;;;729445;80;24656;-76
2022/04/03 01:44:52;;;;;;;3.15;2.00;;;;;;;;;;757217;78;26311;-75
2022/04/03 01:45:56;;;;;;;1.90;1.80;;;;;;;;;;777834;76;26223;-75
2022/04/03 01:46:58;;;;;;;3.30;2.10;;;;;;;;;;767697;77;26341;-75
2022/04/03 01:48:03;;;;;;;2.98;2.25;;;;;;;;;;767529;77;26328;-76
2022/04/03 01:49:08;;;;;;;1.90;1.80;;;;;;;;;;763863;77;26729;-75
2022/04/03 01:52:39;;;;;;;2.30;2.10;;;;;;;;;;766504;77;26591;-75
2022/04/03 01:53:42;;;;;;;2.25;2.05;;;;;;;;;;766270;77;26696;-76
2022/04/03 01:54:44;;;;;;;2.17;1.98;;;;;;;;;;766309;77;26251;-76
2022/04/03 01:55:49;;;;;;;2.30;2.10;;;;;;;;;;766404;77;26239;-76
2022/04/03 01:56:51;;;;;;;1.90;1.80;;;;;;;;;;764768;77;26262;-76
2022/04/03 01:57:54;;;;;;;2.22;2.12;;;;;;;;;;766585;77;26251;-74
2022/04/03 01:58:57;;;;;;;1.98;1.87;;;;;;;;;;767168;77;26241;-75
2022/04/03 02:02:30;;;;;;;2.10;1.75;;;;;;;;;;766670;77;26182;-75
2022/04/03 02:03:34;;;;;;;2.22;2.00;;;;;;;;;;766478;77;26711;-76
2022/04/03 02:04:37;;;;;;;2.62;2.20;;;;;;;;;;766461;77;26729;-75
2022/04/03 02:05:39;;;;;;;4.33;2.05;;;;;;;;;;766599;77;26261;-74
2022/04/03 02:06:42;;;;;;;1.92;1.82;;;;;;;;;;766861;77;26265;-75
2022/04/03 02:07:45;;;;;;;2.20;2.10;;;;;;;;;;766502;77;26252;-77
2022/04/03 02:08:48;;;;;;;2.30;2.10;;;;;;;;;;766468;77;26315;-75
2022/04/03 02:13:24;;;;;;;2.20;2.00;;;;;;;;;;804518;74;26185;-75
2022/04/03 02:14:27;;;;;;;2.35;2.25;;;;;;;;;;804282;74;26665;-75
2022/04/03 02:15:31;;;;;;;1.90;1.80;;;;;;;;;;805225;74;26210;-75
2022/04/03 02:16:34;;;;;;;2.00;1.82;;;;;;;;;;806119;73;26201;-74
2022/04/03 02:17:37;;;;;;;1.95;1.85;;;;;;;;;;805572;74;26186;-76
2022/04/03 02:18:40;;;;;;;2.35;2.05;;;;;;;;;;805661;74;26349;-75
2022/04/03 02:23:01;;;;;;;1.98;1.87;;;;;;;;;;810304;73;26220;-76
2022/04/03 02:24:04;;;;;;;2.00;1.90;;;;;;;;;;814308;72;26213;-75
2022/04/03 02:25:09;;;;;;;1.90;1.80;;;;;;;;;;817483;72;26217;-76
2022/04/03 02:26:12;;;;;;;2.10;2.00;;;;;;;10.12;100.00;74895.03;817444;72;26206;-75
2022/04/03 02:27:16;;;;;;;2.20;2.00;;;;;;;;;;817431;72;26209;-77
2022/04/03 02:28:19;;;;;;;2.52;2.30;;;;;;;;;;815079;72;26703;-75
2022/04/03 02:33:17;;;;;;;2.60;2.17;;;;;;;;;;769752;77;26198;-75
2022/04/03 02:34:20;;;;;;;2.60;1.95;;;;;;;;;;769642;77;26311;-75
2022/04/03 02:35:24;;;;;;;2.37;2.17;;;;;;;;;;769720;77;26249;-74
2022/04/03 02:36:27;;;;;;;2.10;2.00;;;;;;;;;;769645;77;26246;-75
2022/04/03 02:37:30;;;;;;;2.60;2.40;;;;;;;;;;769659;77;26727;-74
2022/04/03 02:38:33;;;;;;;2.37;2.17;;;;;;;;;;769756;77;26261;-74
2022/04/03 02:43:06;;;;;;;7.53;5.97;;;;;;;;;;765380;77;26163;-79
2022/04/03 02:44:09;;;;;;;5.17;3.77;;;;;;;;;;749405;79;26704;-75
2022/04/03 02:45:16;;;;;;;2.75;2.55;;;;;;;;;;764059;77;26237;-75
2022/04/03 02:46:19;;;;;;;2.80;2.60;;;;;;;;;;764704;77;26245;-74
2022/04/03 02:47:23;;;;;;;3.10;2.10;;;;;;;;;;764669;77;26242;-74
2022/04/03 02:48:26;;;;;;;1.70;1.60;;;;;;;;;;769302;76;26243;-76
2022/04/03 02:53:15;;;;;;;1.60;1.50;;;;;;;;;;736428;80;26751;-75
2022/04/03 02:54:18;;;;;;;1.72;1.62;;;;;;;;;;746599;79;26739;-78
2022/04/03 02:55:21;;;;;;;1.40;1.40;;;;;;;;;;746286;79;26267;-76
2022/04/03 02:56:24;;;;;;;1.60;1.50;;;;;;;;;;746264;79;26255;-75
2022/04/03 02:57:27;;;;;;;1.50;1.40;;;;;;;;;;746216;79;26339;-76
2022/04/03 02:58:29;;;;;;;1.72;1.60;;;;;;;;;;746175;79;26263;-76
2022/04/03 03:03:00;;;;;;;1.60;1.40;;;;;;;;;;774570;76;26162;-75
2022/04/03 03:04:03;;;;;;;1.30;1.30;;;;;;;;;;777281;76;26237;-75
2022/04/03 03:05:07;;;;;;;1.80;1.70;;;;;;;;;;776323;76;26301;-75
2022/04/03 03:06:10;;;;;;;1.70;1.55;;;;;;;;;;790543;75;26227;-75
2022/04/03 03:07:14;;;;;;;1.30;1.30;;;;;;;;;;791592;75;26712;-75
2022/04/03 03:08:19;;;;;;;1.95;1.40;;;;;;;;;;791638;75;26229;-74
2022/04/03 03:16:33;;;;;;;1.30;1.30;;;;;;;;;;771590;77;26239;-75
2022/04/03 03:17:36;;;;;;;1.57;1.47;;;;;;;;;;771693;77;26292;-74
2022/04/03 03:18:39;;;;;;;1.72;1.40;;;;;;;;;;771328;77;26306;-75
2022/04/03 03:21:31;;;;;;;2.58;1.35;;;;;;;;;;761081;77;26258;-76
2022/04/03 03:22:34;;;;;;;1.47;1.35;;;;;;;;;;796889;74;26806;-75
2022/04/03 03:23:40;;;;;;;1.82;1.72;;;;;;;;;;797237;74;26215;-75
2022/04/03 03:25:05;;;;;;;1.62;1.52;;;;;;;;;;795832;74;26230;-76
2022/04/03 03:26:08;;;;;;;1.27;1.27;;;;;;;;;;797234;74;26212;-76
2022/04/03 03:27:12;;;;;;;1.40;1.30;;;;;;;;;;796726;74;26684;-74
2022/04/03 03:28:15;;;;;;;1.50;1.40;;;;;;;;;;796570;74;26650;-74
2022/04/03 03:33:11;;;;;;;2.47;1.50;;;;;;;;;;787676;75;26294;-74
2022/04/03 03:34:14;;;;;;;1.40;1.30;;;;;;;;;;786981;75;26247;-76
2022/04/03 03:35:17;;;;;;;1.87;1.77;;;;;;;;;;785922;75;26388;-74
2022/04/03 03:36:23;;;;;;;1.67;1.57;;;;;;;;;;785915;75;26776;-74
2022/04/03 03:37:26;;;;;;;1.50;1.40;;;;;;;;;;785924;75;26654;-75
2022/04/03 03:38:29;;;;;;;2.87;2.58;;;;;;;;;;785896;75;26245;-76
2022/04/03 03:42:43;;;;;;;1.87;1.65;;;;;;;;;;786076;75;26150;-75
2022/04/03 03:43:48;;;;;;;1.50;1.40;;;;;;;;;;786164;75;26245;-74
2022/04/03 03:44:51;;;;;;;1.62;1.50;;;;;;;;;;785948;75;26249;-74
2022/04/03 03:45:56;;;;;;;1.20;1.20;;;;;;;;;;785982;75;26257;-75
2022/04/03 03:47:01;;;;;;;1.37;1.30;;;;;;;;;;785939;75;26243;-75
2022/04/03 03:48:06;;;;;;;1.20;1.20;;;;;;;;;;785928;75;26230;-75
2022/04/03 03:51:24;;;;;;;1.40;1.30;;;;;;;;;;786850;75;26145;-76
2022/04/03 03:52:27;;;;;;;1.20;1.20;;;;;;;;;;753092;79;26257;-75
2022/04/03 03:53:30;;;;;;;1.17;1.10;;;;;;;;;;772773;77;26250;-75
2022/04/03 03:54:33;;;;;;;1.30;1.20;;;;;;;;;;752109;79;26330;-75
2022/04/03 03:55:37;;;;;;;1.77;1.67;;;;;;;;;;772661;77;26247;-75
2022/04/03 03:56:40;;;;;;;1.40;1.30;;;;;;;;;;751923;79;26766;-74
2022/04/03 03:57:46;;;;;;;1.85;1.75;;;;;;;;;;772738;77;26262;-77
2022/04/03 04:00:53;;;;;;;1.87;1.40;;;;;;;;;;773173;77;26242;-75
2022/04/03 04:01:56;;;;;;;1.22;1.22;;;;;;;;;;764755;77;26688;-76
2022/04/03 04:02:59;;;;;;;1.17;1.17;;;;;;;;;;786048;75;26671;-75
2022/04/03 04:04:03;;;;;;;1.20;1.10;;;;;;;;;;764675;77;26759;-75
2022/04/03 04:05:07;;;;;;;1.57;1.47;;;;;;;;;;786056;75;26237;-74
2022/04/03 04:06:10;;;;;;;1.20;1.20;;;;;;;;;;764662;77;26247;-75
2022/04/03 04:07:13;;;;;;;1.02;1.02;;;;;;;;;;785913;75;26245;-75
2022/04/03 04:08:16;;;;;;;1.85;1.30;;;;;;;;;;785928;75;26236;-75
2022/04/03 04:13:03;;;;;;;1.65;1.50;;;;;;;;;;770991;77;26724;-75
2022/04/03 04:14:06;;;;;;;1.25;1.07;;;;;;;;;;771169;77;26242;-75
2022/04/03 04:15:09;;;;;;;1.00;1.00;;;;;;;;;;770522;77;26234;-75
2022/04/03 04:16:14;;;;;;;1.50;1.10;;;;;;;;;;770137;77;26236;-75
2022/04/03 04:17:18;;;;;;;1.05;1.05;;;;;;;;;;769665;77;26708;-76
2022/04/03 04:18:22;;;;;;;1.00;1.00;;;;;;;;;;769716;77;26677;-75
2022/04/03 04:21:40;;;;;;;1.05;1.05;;;;;;;;;;782364;76;26666;-75
2022/04/03 04:22:46;;;;;;;1.00;1.00;;;;;;;;;;782128;76;26224;-75
2022/04/03 04:23:49;;;;;;;1.10;1.00;;;;;;;;;;782126;76;26230;-78
2022/04/03 04:24:53;;;;;;;1.30;1.20;;;;;;;;;;782157;76;26762;-74
2022/04/03 04:25:56;;;;;;;1.12;1.02;;;;;;;;;;782147;76;26228;-74
2022/04/03 04:27:00;;;;;;;1.10;1.10;;;;;;;;;;782208;76;26226;-75
2022/04/03 04:28:03;;;;;;;1.10;1.10;;;;;;;;;;782283;76;26239;-76
2022/04/03 04:32:49;;;;;;;1.40;1.30;;;;;;;;;;779819;76;26394;-75
2022/04/03 04:33:52;;;;;;;1.40;1.25;;;;;;;;;;779892;76;26246;-75
2022/04/03 04:34:56;;;;;;;1.20;1.20;;;;;;;;;;779778;76;26325;-75
2022/04/03 04:36:00;;;;;;;1.32;1.27;;;;;;;;;;779965;76;26240;-75
2022/04/03 04:37:03;;;;;;;1.20;1.20;;;;;;;;;;779837;76;26235;-74
2022/04/03 04:38:06;;;;;;;1.37;1.27;;;;;;;;;;779804;76;26238;-76
2022/04/03 04:42:39;;;;;;;1.85;1.42;;;;;;;;;;762525;78;26160;-75
2022/04/03 04:43:43;;;;;;;1.57;1.47;;;;;;;;;;785880;75;26300;-75
2022/04/03 04:44:47;;;;;;;1.50;1.40;;;;;;;;;;785887;75;26233;-74
2022/04/03 04:45:52;;;;;;;1.32;1.22;;;;;;;;;;785960;75;26234;-75
2022/04/03 04:46:56;;;;;;;1.32;1.22;;;;;;;;;;786035;75;26250;-75
2022/04/03 04:48:00;;;;;;;1.25;1.20;;;;;;;;;;787137;75;26301;-76
2022/04/03 04:51:18;;;;;;;1.30;1.20;;;;;;;;;;802083;74;26315;-76
2022/04/03 04:52:22;;;;;;;0.98;0.98;;;;;;;;;;801676;74;26228;-75
2022/04/03 04:53:25;;;;;;;2.00;1.40;;;;;;;;;;801721;74;26692;-76
2022/04/03 04:54:29;;;;;;;1.00;1.00;;;;;;;;;;801807;74;26689;-76
2022/04/03 04:55:32;;;;;;;1.12;1.10;;;;;;;;;;801878;74;26293;-74
2022/04/03 04:56:46;;;;;;;1.05;1.05;;;;;;;;;;801757;74;26216;-75
2022/04/03 04:57:52;;;;;;;1.30;1.20;;;;;;;;;;801803;74;26364;-75
2022/04/03 05:02:25;;;;;;;2.00;1.20;;;;;;;;;;748400;79;26677;-76
2022/04/03 05:03:29;;;;;;;1.07;1.07;;;;;;;;;;748233;79;26728;-76
2022/04/03 05:04:34;;;;;;;1.02;1.02;;;;;;;;;;748321;79;26303;-75
2022/04/03 05:05:39;;;;;;;1.20;1.10;;;;;;;;;;748374;78;26306;-74
2022/04/03 05:06:44;;;;;;;1.67;1.52;;;;;;;;;;748298;79;26335;-75
2022/04/03 05:07:48;;;;;;;1.72;1.40;;;;;;;;;;748270;79;26252;-75
2022/04/03 05:12:45;;;;;;;1.20;1.20;;;;;;;;;;761146;78;26597;-76
2022/04/03 05:13:49;;;;;;;1.52;1.42;;;;;;;;;;785435;75;26249;-75
2022/04/03 05:14:54;;;;;;;1.30;1.20;;;;;;;;;;760882;78;26764;-75
2022/04/03 05:16:02;;;;;;;1.10;1.10;;;;;;;;;;785519;75;26238;-75
2022/04/03 05:17:08;;;;;;;1.10;1.10;;;;;;;;;;771983;76;26734;-74
2022/04/03 05:24:48;;;;;;;4.25;1.30;;;;;;;;;;765122;77;26232;-76
2022/04/03 05:25:52;;;;;;;1.00;1.00;;;;;;;;;;765133;77;26689;-76
2022/04/03 05:26:57;;;;;;;1.32;1.10;;;;;;;;;;765185;77;26247;-74
2022/04/03 05:28:00;;;;;;;1.80;1.20;;;;;;;;;;765255;77;26236;-77
2022/04/03 05:31:01;;;;;;;1.27;1.27;;;;;;;;;;788777;75;26208;-76
2022/04/03 05:32:06;;;;;;;1.10;1.10;;;;;;;;;;788611;75;26249;-76
2022/04/03 05:33:14;;;;;;;1.80;1.20;;;;;;;;;;788718;75;26236;-75
2022/04/03 05:34:18;;;;;;;1.22;1.00;;;;;;;;;;788796;75;26285;-75
2022/04/03 05:35:21;;;;;;;1.30;1.20;;;;;;;;;;788881;75;26233;-74
2022/04/03 05:36:24;;;;;;;0.98;0.98;;;;;;;;;;788901;75;26241;-74
2022/04/03 05:37:27;;;;;;;1.42;1.32;;;;;;;;;;789377;75;26252;-75
2022/04/03 05:40:38;;;;;;;1.45;1.30;;;;;;;;;;774502;76;26780;-75
2022/04/03 05:41:43;;;;;;;1.10;1.10;;;;;;;;;;777879;75;26251;-77
2022/04/03 05:43:07;;;;;;;1.40;1.30;;;;;;;;;;752155;78;26332;-74
2022/04/03 05:44:15;;;;;;;1.60;1.37;;;;;;;;;;744681;79;26258;-75
2022/04/03 05:45:38;;;;;;;1.17;1.15;;;;;;;;;;769557;77;26338;-76
2022/04/03 05:46:44;;;;;;;1.20;1.20;;;;;;;;;;763131;78;26247;-75
2022/04/03 05:47:51;;;;;;;1.90;1.27;;;;;;;;;;764223;77;26244;-76
2022/04/03 05:50:24;;;;;;;1.10;1.10;;;;;;;;;;726000;81;26324;-74
2022/04/03 05:51:51;;;;;;;1.30;1.30;;;;;;;;;;772681;77;26304;-76
2022/04/03 05:52:57;;;;;;;1.57;1.40;;;;;;;;;;774996;75;26249;-76
2022/04/03 05:54:18;;;;;;;1.52;1.42;;;;;;;;;;772698;77;26249;-75
2022/04/03 05:55:25;;;;;;;1.40;1.40;;;;;;;;;;772691;77;26341;-75
2022/04/03 05:56:36;;;;;;;1.52;1.42;;;;;;;;;;772070;76;26305;-75
2022/04/03 05:57:41;;;;;;;1.45;1.40;;;;;;;;;;793219;74;26301;-73
2022/04/03 06:01:01;;;;;;;1.75;1.60;;;;;;;;;;802773;74;26144;-75
2022/04/03 06:02:05;;;;;;;1.30;1.30;;;;;;;;;;759216;78;26258;-76
2022/04/03 06:03:09;;;;;;;1.40;1.20;;;;;;;;;;760585;78;26305;-77
2022/04/03 06:04:14;;;;;;;1.00;1.00;;;;;;;;;;760259;78;26321;-75
2022/04/03 06:05:18;;;;;;;1.40;1.30;;;;;;;;;;759120;78;26766;-75
2022/04/03 06:06:21;;;;;;;1.15;1.15;;;;;;;;;;759167;78;26278;-74
2022/04/03 06:07:26;;;;;;;1.40;1.30;;;;;;;;;;759250;78;26748;-74
2022/04/03 06:10:34;;;;;;;1.20;1.20;;;;;;;;;;768725;77;26700;-75
2022/04/03 06:11:37;;;;;;;1.55;1.45;;;;;;;;;;768646;77;26243;-76
2022/04/03 06:12:41;;;;;;;1.25;1.15;;;;;;;;;;768554;77;26247;-76
2022/04/03 06:13:44;;;;;;;1.15;1.15;;;;;;;;;;767221;77;26747;-77
2022/04/03 06:14:47;;;;;;;1.30;1.20;;;;;;;;;;768849;77;26294;-77
2022/04/03 06:15:50;;;;;;;1.20;1.20;;;;;;;;;;768816;77;26247;-77
2022/04/03 06:16:53;;;;;;;1.10;1.10;;;;;;;;;;769322;77;26235;-77
2022/04/03 06:20:26;;;;;;;1.40;1.30;;;;;;;;;;782413;76;26221;-77
2022/04/03 06:21:30;;;;;;;1.40;1.30;;;;;;;;;;782286;76;26710;-75
2022/04/03 06:22:33;;;;;;;1.75;1.65;;;;;;;;;;782316;76;26249;-74
2022/04/03 06:23:36;;;;;;;1.40;1.40;;;;;;;;;;782387;76;26303;-77
2022/04/03 06:24:40;;;;;;;2.00;1.90;;;;;;;;;;782393;76;26310;-77
2022/04/03 06:25:44;;;;;;;2.50;2.30;;;;;;;;;;782516;76;26690;-74
2022/04/03 06:26:47;;;;;;;2.43;1.60;;;;;;;;;;782237;76;26674;-75
2022/04/03 06:31:19;;;;;;;1.77;1.57;;;;;;;;;;769340;77;26179;-75
2022/04/03 06:32:22;;;;;;;1.13;1.00;;;;;;;;;;745910;79;26261;-75
2022/04/03 06:33:25;;;;;;;1.10;1.10;;;;;;;;;;765653;77;27064;-77
2022/04/03 06:34:28;;;;;;;1.00;1.00;;;;;;;;;;769440;77;26340;-77
2022/04/03 06:35:32;;;;;;;1.77;1.67;;;;;;;;;;752441;79;26340;-78
2022/04/03 06:36:36;;;;;;;3.17;2.97;;;;;;;;;;760971;78;26511;-79
2022/04/03 06:40:34;;;;;;;2.73;2.53;;;;;;;;;;769836;75;26989;-75
2022/04/03 06:41:37;;;;;;;2.50;2.30;;;;;;;;;;781346;75;26524;-74
2022/04/03 06:42:43;;;;;;;2.30;2.10;;;;;;;;;;783138;76;26473;-74
2022/04/03 06:43:45;;;;;;;2.00;1.67;;;;;;;;;;783936;76;26456;-74
2022/04/03 06:44:48;;;;;;;2.87;1.93;;;;;;;;;;783620;76;26467;-74
2022/04/03 06:45:51;;;;;;;6.70;2.10;;;;;;;;;;783074;76;26407;-77
2022/04/03 06:46:56;;;;;;;1.90;1.80;;;;;;;;;;783155;76;26463;-76
2022/04/03 06:51:29;;;;;;;3.63;2.27;;;;;;;;;;772100;77;26336;-74
2022/04/03 06:52:33;;;;;;;2.50;2.30;;;;;;;;;;772273;77;26866;-74
2022/04/03 06:53:39;;;;;;;4.10;2.13;;;;;;;;;;772200;77;26511;-75
2022/04/03 06:54:56;;;;;;;2.27;2.17;;;;;;;;;;770818;77;26595;-75
2022/04/03 06:56:09;;;;;;;1.80;1.70;;;;;;;;;;771927;77;26852;-74
2022/04/03 06:57:14;;;;;;;1.67;1.57;;;;;;;;;;771875;77;26502;-73
2022/04/03 07:01:54;;;;;;;1.40;1.30;;;;;;;;;;754223;79;26534;-75
2022/04/03 07:02:58;;;;;;;1.60;1.50;;;;;;;;;;753915;79;26558;-73
2022/04/03 07:04:02;;;;;;;1.53;1.43;;;;;;;;;;753298;79;26485;-75
2022/04/03 07:05:13;;;;;;;1.73;1.63;;;;;;;;;;744026;80;26553;-74
2022/04/03 07:06:30;;;;;;;1.23;1.13;;;;;;;;;;747183;79;26270;-73
2022/04/03 07:11:28;;;;;;;1.60;1.50;;;;;;;;;;737896;80;26446;-74
2022/04/03 07:12:33;;;;;;;1.40;1.30;;;;;;;;;;737435;79;26516;-74
2022/04/03 07:13:37;;;;;;;1.40;1.40;;;;;;;;;;737866;80;26522;-74
2022/04/03 07:14:49;;;;;;;1.95;1.60;;;;;;;;;;755241;78;26843;-74
2022/04/03 07:15:57;;;;;;;1.60;1.50;;;;;;;;;;740025;80;26728;-73
2022/04/03 07:17:21;;;;;;;1.40;1.30;;;;;;;;;;732281;80;26774;-72
2022/04/03 07:20:36;;;;;;;1.90;1.80;;;;;;;;;;742419;80;26203;-75
2022/04/03 07:21:42;;;;;;;2.08;1.92;;;;;;;;;;732141;81;26758;-69
2022/04/03 07:22:47;;;;;;;1.70;1.60;;;;;;;;;;749612;77;26265;-74
2022/04/03 07:23:55;;;;;;;1.42;1.40;;;;;;;;;;741917;79;26356;-71
2022/04/03 07:25:02;;;;;;;1.50;1.40;;;;;;;;;;742762;80;26270;-70
2022/04/03 07:26:08;;;;;;;1.62;1.52;;;;;;;;;;742584;80;26767;-70
2022/04/03 07:27:16;;;;;;;2.35;1.75;;;;;;;;;;742508;80;26341;-71
2022/04/03 07:31:25;;;;;;;1.77;1.67;;;;;;;;;;738165;80;26696;-71
2022/04/03 07:32:34;;;;;;;1.50;1.40;;;;;;;;;;738425;80;26255;-71
2022/04/03 07:33:37;;;;;;;2.20;1.55;;;;;;;;;;738157;80;26270;-71
2022/04/03 07:35:03;;;;;;;1.20;1.20;;;;;;;;;;738909;80;26264;-72
2022/04/03 07:36:29;;;;;;;2.12;1.70;;;;;;;;;;739701;80;26333;-71
2022/04/03 07:39:51;;;;;;;1.40;1.30;;;;;;;;;;738963;80;26224;-71
2022/04/03 07:41:13;;;;;;;1.55;1.45;;;;;;;;;;734769;81;26761;-72
2022/04/03 07:42:26;;;;;;;1.55;1.45;;;;;;;;;;737915;80;26351;-71
2022/04/03 07:43:35;;;;;;;1.22;1.22;;;;;;;;;;738464;80;26320;-72
2022/04/03 07:44:59;;;;;;;1.20;1.20;;;;;;;;;;735633;80;26281;-71
2022/04/03 07:51:40;;;;;;;3.42;1.30;;;;;;;;;;751592;79;26242;-71
2022/04/03 07:52:44;;;;;;;1.30;1.20;;;;;;;;;;727826;81;26354;-70
2022/04/03 07:53:47;;;;;;;1.30;1.30;;;;;;;;;;740467;79;26392;-73
2022/04/03 07:54:51;;;;;;;1.20;1.12;;;;;;;;;;733119;81;26746;-71
2022/04/03 07:55:54;;;;;;;1.22;1.22;;;;;;;;;;750451;79;26321;-70
2022/04/03 07:57:00;;;;;;;1.50;1.10;;;;;;;;;;735594;80;26755;-71
2022/04/03 08:00:18;;;;;;;2.60;2.40;;;;;;;;;;772912;77;26691;-72
2022/04/03 08:01:25;;;;;;;2.52;2.10;;;;;;;;;;747446;79;26317;-71
2022/04/03 08:02:30;;;;;;;1.98;1.87;;;;;;;;;;769740;77;26670;-72
2022/04/03 08:03:33;;;;;;;1.30;1.30;;;;;;;;;;766233;77;26252;-74
2022/04/03 08:04:39;;;;;;;1.37;1.35;;;;;;;;;;766110;77;26252;-71
2022/04/03 08:05:43;;;;;;;2.30;1.45;;;;;;;;;;766453;77;26248;-72
2022/04/03 08:06:48;;;;;;;3.08;1.50;;;;;;;;;;766562;77;26286;-71
2022/04/03 08:13:20;;;;;;;2.40;1.30;;;;;;;;;;766874;77;26232;-71
2022/04/03 08:14:24;;;;;;;2.47;1.50;;;;;;;;;;762220;77;26271;-72
2022/04/03 08:15:31;;;;;;;2.05;1.40;;;;;;;;;;767369;77;26770;-72
2022/04/03 08:16:34;;;;;;;1.50;1.40;;;;;;;;;;767484;77;26259;-71
2022/04/03 08:19:53;;;;;;;1.70;1.60;;;;;;;;;;766923;77;26281;-74
2022/04/03 08:20:56;;;;;;;2.45;1.50;;;;;;;;;;760143;77;26709;-73
2022/04/03 08:22:07;;;;;;;1.40;1.30;;;;;;;;;;759685;78;26713;-71
2022/04/03 08:23:26;;;;;;;1.90;1.70;;;;;;;;;;759416;78;26326;-71
2022/04/03 08:24:29;;;;;;;1.50;1.40;;;;;;;;;;759486;78;26349;-72
2022/04/03 08:25:33;;;;;;;2.08;1.87;;;;;;;;;;759389;78;26264;-71
2022/04/03 08:26:37;;;;;;;1.52;1.42;;;;;;;;;;762386;78;26260;-72
2022/04/03 08:29:32;;;;;;;1.65;1.55;;;;;;;;;;745564;79;26731;-74
2022/04/03 08:30:36;;;;;;;1.70;1.60;;;;;;;;;;745838;79;26217;-71
2022/04/03 08:31:39;;;;;;;1.40;1.30;;;;;;;;;;745636;79;26226;-74
2022/04/03 08:32:43;;;;;;;1.35;1.35;;;;;;;;;;745168;79;26227;-75
2022/04/03 08:33:47;;;;;;;1.60;1.50;;;;;;;;;;745057;79;26703;-74
2022/04/03 08:34:53;;;;;;;1.80;1.70;;;;;;;;;;745426;79;26692;-72
2022/04/03 08:35:57;;;;;;;1.70;1.60;;;;;;;;;;732329;80;26727;-73
2022/04/03 08:37:01;;;;;;;1.50;1.40;;;;;;;;;;739224;80;26782;-73
2022/04/03 08:40:06;;;;;;;1.55;1.45;;;;;;;;;;744480;78;26265;-73
2022/04/03 08:41:10;;;;;;;2.10;1.65;;;;;;;;;;758721;78;26347;-71
2022/04/03 08:42:14;;;;;;;1.92;1.80;;;;;;;;;;764086;78;26264;-71
2022/04/03 08:43:17;;;;;;;2.85;2.30;;;;;;;;;;765168;77;26657;-72
2022/04/03 08:44:21;;;;;;;2.70;2.42;;;;;;;;;;761611;78;26427;-74
2022/04/03 08:45:24;;;;;;;2.40;2.20;;;;;;;;;;761275;78;26363;-72
2022/04/03 08:46:31;;;;;;;1.90;1.70;;;;;;;;;;761504;77;26320;-72
2022/04/03 08:51:05;;;;;;;1.50;1.50;;;;;;;;;;751028;79;26178;-71
2022/04/03 08:52:09;;;;;;;1.55;1.45;;;;;;;;;;726857;81;26281;-72
2022/04/03 08:53:12;;;;;;;1.30;1.30;;;;;;;;;;738685;80;26281;-71
2022/04/03 08:54:17;;;;;;;1.70;1.60;;;;;;;;;;736266;80;26278;-75
2022/04/03 08:55:21;;;;;;;1.50;1.40;;;;;;;;;;735528;80;26265;-72
2022/04/03 08:56:25;;;;;;;1.80;1.70;;;;;;;;;;724977;82;26348;-72
2022/04/03 08:59:27;;;;;;;1.50;1.40;;;;;;;;;;768399;77;26324;-72
2022/04/03 09:00:34;;;;;;;1.62;1.52;;;;;;;;;;774774;76;26306;-72
2022/04/03 09:01:37;;;;;;;1.62;1.55;;;;;;;;;;768494;77;26337;-72
2022/04/03 09:02:43;;;;;;;1.62;1.55;;;;;;;;;;768544;77;26250;-71
2022/04/03 09:03:47;;;;;;;1.70;1.60;;;;;;;;;;768445;77;26368;-76
2022/04/03 09:04:50;;;;;;;1.50;1.40;;;;;;;;;;768594;77;26258;-72
2022/04/03 09:05:55;;;;;;;1.42;1.37;;;;;;;;;;768551;77;26674;-70
2022/04/03 09:10:44;;;;;;;1.55;1.45;;;;;;;;;;779373;76;26679;-68
2022/04/03 09:12:08;;;;;;;1.50;1.40;;;;;;;;;;777097;76;26249;-68
2022/04/03 09:13:13;;;;;;;1.62;1.00;;;;;;;;;;779855;76;26244;-69
2022/04/03 09:14:18;;;;;;;1.50;1.40;;;;;;;;;;778608;75;26744;-71
2022/04/03 09:15:21;;;;;;;1.20;1.20;;;;;;;;;;779553;76;26313;-70
2022/04/03 09:16:40;;;;;;;1.17;1.17;;;;;;;;;;779837;76;26252;-69
2022/04/03 09:19:57;;;;;;;2.27;1.20;;;;;;;;;;766413;77;26267;-70
2022/04/03 09:21:00;;;;;;;2.02;1.42;;;;;;;;;;767266;77;26716;-70
2022/04/03 09:22:03;;;;;;;1.17;1.15;;;;;;;;;;767351;77;26318;-69
2022/04/03 09:23:07;;;;;;;1.10;1.10;;;;;;;;;;766450;77;26731;-71
2022/04/03 09:24:14;;;;;;;2.45;2.02;;;;;;;;;;766084;77;26252;-69
2022/04/03 09:25:16;;;;;;;2.25;2.10;;;;;;;;;;765322;77;26749;-70
2022/04/03 09:26:21;;;;;;;1.72;1.60;;;;;;;;;;766071;77;26310;-70
2022/04/03 09:30:54;;;;;;;1.27;1.22;;;;;;;;;;788643;75;26190;-70
2022/04/03 09:32:01;;;;;;;1.47;1.40;;;;;;;;;;788327;75;26237;-68
2022/04/03 09:33:05;;;;;;;1.40;1.30;;;;;;;;;;788421;75;26244;-69
2022/04/03 09:34:10;;;;;;;1.55;1.10;;;;;;;;;;788765;75;26256;-69
2022/04/03 09:35:13;;;;;;;1.20;1.10;;;;;;;;;;788647;75;26227;-68
2022/04/03 09:36:18;;;;;;;1.35;1.30;;;;;;;;;;788081;75;26236;-68
2022/04/03 09:39:38;;;;;;;2.22;2.10;;;;;;;;;;787785;75;26525;-69
2022/04/03 09:40:42;;;;;;;2.40;2.22;;;;;;;;;;767504;76;26268;-69
2022/04/03 09:41:58;;;;;;;2.12;1.92;;;;;;;;;;777799;76;26382;-69
2022/04/03 09:43:16;;;;;;;3.15;2.40;;;;;;;;;;774803;76;26326;-69
2022/04/03 09:44:21;;;;;;;1.80;1.70;;;;;;;;;;767934;77;26313;-69
2022/04/03 09:45:29;;;;;;;1.40;1.40;;;;;;;;;;767917;77;26746;-70